Time;durP1;ratioP1;P1;durP2;ratioP2;P2;SDS_P1;SDS_P2;PMS_P1;PMS_P2;Temp;Humidity;BMP_temperature;BMP_pressure;BME280_temperature;BME280_humidity;BME280_pressure;Samples;Min_cycle;Max_cycle;Signal;HPM_P1;HPM_P2
2022/12/22 03:26:03;;;;;;;64.07;24.25;;;;;;;1.88;100.00;97850.91;2622760;28;20055;-85
2022/12/22 03:27:18;;;;;;;64.25;26.85;;;;;;;1.81;100.00;97853.50;2621887;28;20056;-84
2022/12/22 03:28:34;;;;;;;62.40;24.95;;;;;;;1.92;100.00;97850.91;2620545;28;20532;-86
2022/12/22 03:29:50;;;;;;;53.55;24.33;;;;;;;2.11;100.00;97849.13;2622406;28;20056;-84
2022/12/22 03:31:05;;;;;;;60.97;24.23;;;;;;;2.10;100.00;97852.56;2622791;28;20075;-87
2022/12/22 03:32:21;;;;;;;53.53;23.85;;;;;;;2.26;100.00;97847.34;2621655;28;20044;-85
2022/12/22 03:33:36;;;;;;;55.95;23.17;;;;;;;2.31;100.00;97850.75;2622645;28;20189;-88
2022/12/22 03:34:52;;;;;;;59.58;24.08;;;;;;;2.34;100.00;97845.56;2621391;28;20052;-85
2022/12/22 03:36:09;;;;;;;56.15;24.10;;;;;;;2.16;100.00;97843.91;2621463;28;20167;-84
2022/12/22 03:37:24;;;;;;;62.03;25.20;;;;;;;1.98;100.00;97843.13;2621854;28;20536;-88
2022/12/22 03:38:40;;;;;;;59.13;24.02;;;;;;;2.08;100.00;97843.94;2622079;28;20048;-87
2022/12/22 03:39:55;;;;;;;55.53;23.27;;;;;;;2.09;100.00;97840.50;2622077;28;20044;-85
2022/12/22 03:46:29;;;;;;;54.33;22.92;;;;;;;2.00;100.00;97837.97;2621305;28;20422;-85
2022/12/22 03:47:30;;;;;;;60.20;24.65;;;;;;;2.23;100.00;97806.00;2620723;28;20466;-86
2022/12/22 03:50:20;;;;;;;59.22;24.90;;;;;;;2.19;100.00;97801.72;2621986;28;20380;-85
2022/12/22 03:51:40;;;;;;;88.13;27.38;;;;;;;2.05;100.00;97810.41;2620980;28;20060;-89
2022/12/22 03:52:56;;;;;;;58.58;24.35;;;;;;;2.22;100.00;97802.59;2621478;28;20052;-84
2022/12/22 03:54:14;;;;;;;81.53;27.10;;;;;;;2.30;100.00;97802.56;2620004;28;20576;-84
2022/12/22 03:55:30;;;;;;;66.38;23.85;;;;;;;2.36;100.00;97797.34;2620678;28;20051;-84
2022/12/22 03:56:47;;;;;;;58.60;23.13;;;;;;;2.31;100.00;97798.25;2621911;28;20048;-84
2022/12/22 03:58:02;;;;;;;72.78;25.40;;;;;;;2.39;100.00;97791.31;2622475;28;20053;-84
2022/12/22 03:59:18;;;;;;;71.78;26.23;;;;;;;2.43;100.00;97789.56;2620151;28;20120;-85
2022/12/22 04:00:34;;;;;;;67.30;24.27;;;;;;;2.51;100.00;97785.19;2620424;28;20186;-84
2022/12/22 04:01:52;;;;;;;51.00;22.90;;;;;;;2.31;100.00;97786.19;2623853;28;20048;-85
2022/12/22 04:03:08;;;;;;;56.95;23.52;;;;;;;2.33;100.00;97788.78;2622641;28;20043;-84
2022/12/22 04:04:25;;;;;;;64.25;23.67;;;;;;;2.33;100.00;97781.84;2621737;28;20049;-84
2022/12/22 04:05:40;;;;;;;49.20;21.75;;;;;;;2.48;100.00;97773.19;2622196;28;20044;-85
2022/12/22 04:06:56;;;;;;;49.88;22.27;;;;;;;2.28;100.00;97773.28;2621132;28;20349;-85
2022/12/22 04:08:12;;;;;;;57.83;22.70;;;;;;;2.01;100.00;97771.69;2620734;28;20498;-84
2022/12/22 04:09:28;;;;;;;51.70;20.92;;;;;;;2.11;100.00;97763.03;2621537;28;20040;-85
2022/12/22 04:13:52;;;;;;;38.55;17.75;;;;;;;2.10;100.00;97776.81;2620776;28;20076;-86
2022/12/22 04:15:08;;;;;;;38.25;17.42;;;;;;;2.19;100.00;97774.19;2621242;28;20036;-86
2022/12/22 04:16:23;;;;;;;42.40;16.73;;;;;;;2.06;100.00;97786.28;2621541;28;20472;-84
2022/12/22 04:17:39;;;;;;;36.50;15.02;;;;;;;2.32;100.00;97785.31;2621721;28;20071;-89
2022/12/22 04:18:55;;;;;;;37.17;15.55;;;;;;;2.25;100.00;97783.66;2621383;28;20055;-89
2022/12/22 04:20:11;;;;;;;37.25;15.52;;;;;;;2.25;100.00;97791.41;2620205;28;20243;-85
2022/12/22 04:21:27;;;;;;;54.42;18.88;;;;;;;2.39;100.00;97792.19;2622030;28;20048;-88
2022/12/22 04:22:42;;;;;;;79.22;22.92;;;;;;;2.45;100.00;97793.00;2622601;28;20048;-84
2022/12/22 04:23:58;;;;;;;93.38;23.92;;;;;;;2.44;100.00;97796.44;2623129;28;20098;-85
2022/12/22 04:25:14;;;;;;;51.63;21.17;;;;;;;2.44;100.00;97802.47;2620364;28;20045;-84
2022/12/22 04:26:30;;;;;;;60.00;20.83;;;;;;;2.13;100.00;97815.53;2622514;28;20521;-84
2022/12/22 04:27:46;;;;;;;55.00;20.17;;;;;;;1.98;100.00;97809.56;2621817;28;20491;-85
2022/12/22 04:29:02;;;;;;;90.38;23.60;;;;;;;1.81;100.00;97822.53;2620326;28;20373;-85
2022/12/22 04:30:17;;;;;;;137.93;26.42;;;;;;;1.71;100.00;97830.31;2619984;28;20052;-86
2022/12/22 04:31:33;;;;;;;93.72;24.17;;;;;;;1.93;100.00;97824.22;2621867;28;20044;-85
2022/12/22 04:32:49;;;;;;;234.60;29.50;;;;;;;1.93;100.00;97823.34;2622182;28;20052;-85
2022/12/22 04:34:04;;;;;;;104.10;26.67;;;;;;;2.01;100.00;97820.75;2622381;28;20043;-85
2022/12/22 04:35:20;;;;;;;205.63;27.63;;;;;;;2.28;100.00;97812.03;2622066;28;20322;-84
2022/12/22 04:36:35;;;;;;;81.68;25.10;;;;;;;2.34;100.00;97806.81;2622060;28;21085;-85
2022/12/22 04:37:51;;;;;;;96.88;25.83;;;;;;;2.37;100.00;97795.63;2620336;28;20533;-85
2022/12/22 04:39:07;;;;;;;235.48;33.88;;;;;;;2.38;100.00;97807.69;2621470;28;20045;-84
2022/12/22 04:40:22;;;;;;;126.97;28.15;;;;;;;2.43;100.00;97805.06;2621641;28;20047;-88
2022/12/22 04:41:38;;;;;;;140.68;27.73;;;;;;;2.36;100.00;97815.41;2620409;28;20052;-88
2022/12/22 04:42:53;;;;;;;102.43;27.27;;;;;;;2.26;100.00;97808.59;2620688;28;20055;-85
2022/12/22 04:44:09;;;;;;;59.30;24.50;;;;;;;2.17;100.00;97799.19;2619156;28;20052;-85
2022/12/22 04:45:24;;;;;;;133.93;27.25;;;;;;;2.15;100.00;97800.03;2621485;28;20047;-85
2022/12/22 04:46:40;;;;;;;65.40;25.63;;;;;;;1.94;100.00;97799.25;2622812;28;20076;-85
2022/12/22 04:47:56;;;;;;;59.45;25.88;;;;;;;2.11;100.00;97792.31;2623446;28;20144;-84
2022/12/22 04:49:11;;;;;;;57.95;25.02;;;;;;;2.29;100.00;97794.78;2622365;28;20102;-88
2022/12/22 04:50:27;;;;;;;57.15;23.70;;;;;;;2.25;100.00;97783.66;2622897;28;20380;-85
2022/12/22 04:51:42;;;;;;;56.20;24.08;;;;;;;2.39;100.00;97788.72;2621642;28;20052;-84
2022/12/22 04:52:58;;;;;;;66.55;25.63;;;;;;;2.35;100.00;97781.88;2619566;28;20067;-87
2022/12/22 04:54:14;;;;;;;85.28;25.90;;;;;;;2.11;100.00;97794.91;2620240;28;20098;-85
2022/12/22 04:55:29;;;;;;;79.40;23.70;;;;;;;2.27;100.00;97779.31;2622014;28;20047;-85
2022/12/22 04:56:45;;;;;;;95.57;25.88;;;;;;;2.23;100.00;97782.75;2623180;28;20051;-86
2022/12/22 04:58:01;;;;;;;83.97;26.02;;;;;;;2.22;100.00;97778.47;2622306;28;20139;-85
2022/12/22 04:59:16;;;;;;;62.13;23.45;;;;;;;2.32;100.00;97774.97;2621862;28;20048;-86
2022/12/22 05:00:32;;;;;;;60.08;23.17;;;;;;;1.99;100.00;97779.47;2621698;28;20618;-84
2022/12/22 05:01:47;;;;;;;75.40;23.90;;;;;;;2.23;100.00;97782.75;2619802;28;20090;-89
2022/12/22 05:03:03;;;;;;;59.30;23.80;;;;;;;2.29;100.00;97790.50;2622026;28;20051;-86
2022/12/22 05:04:19;;;;;;;52.80;22.70;;;;;;;2.34;100.00;97778.41;2621907;28;20481;-85
2022/12/22 05:05:35;;;;;;;60.83;23.42;;;;;;;2.36;100.00;97781.00;2622612;28;20101;-88
2022/12/22 05:06:50;;;;;;;45.40;21.33;;;;;;;2.10;100.00;97781.97;2619778;28;20048;-86
2022/12/22 05:08:06;;;;;;;79.25;23.05;;;;;;;2.40;100.00;97775.81;2620007;28;20508;-85
2022/12/22 05:09:22;;;;;;;55.30;22.30;;;;;;;2.48;100.00;97772.31;2620974;28;20048;-85
2022/12/22 05:10:37;;;;;;;70.05;23.00;;;;;;;2.58;100.00;97773.09;2620261;28;20102;-85
2022/12/22 05:11:53;;;;;;;71.25;22.58;;;;;;;2.66;100.00;97769.63;2622730;28;20486;-84
2022/12/22 05:13:09;;;;;;;46.78;20.60;;;;;;;2.24;100.00;97763.84;2622115;28;20059;-85
2022/12/22 05:14:24;;;;;;;43.88;20.70;;;;;;;2.46;100.00;97758.53;2620096;28;20048;-86
2022/12/22 05:15:40;;;;;;;46.08;20.65;;;;;;;2.58;100.00;97760.16;2620589;28;20351;-85
2022/12/22 05:16:55;;;;;;;61.60;21.58;;;;;;;2.59;100.00;97755.00;2621453;28;20041;-86
2022/12/22 05:18:12;;;;;;;47.38;19.98;;;;;;;2.62;100.00;97765.31;2621467;28;20143;-85
2022/12/22 05:19:27;;;;;;;55.60;20.42;;;;;;;2.48;100.00;97754.22;2621456;28;20048;-85
2022/12/22 05:20:43;;;;;;;42.28;19.38;;;;;;;2.37;100.00;97746.53;2622295;28;20511;-84
2022/12/22 05:21:58;;;;;;;44.22;19.38;;;;;;;2.51;100.00;97746.44;2622941;28;20049;-84
2022/12/22 05:23:14;;;;;;;48.53;19.85;;;;;;;2.58;100.00;97737.78;2621831;28;20120;-85
2022/12/22 05:24:30;;;;;;;46.75;18.23;;;;;;;2.63;100.00;97743.78;2621006;28;20055;-85
2022/12/22 05:25:45;;;;;;;39.78;19.15;;;;;;;2.49;100.00;97736.13;2619813;28;20044;-85
2022/12/22 05:27:01;;;;;;;44.70;19.73;;;;;;;2.61;100.00;97734.34;2620356;28;20063;-85
2022/12/22 05:28:17;;;;;;;40.22;18.65;;;;;;;2.68;100.00;97734.28;2620757;28;20055;-85
2022/12/22 05:29:32;;;;;;;43.42;19.58;;;;;;;2.21;100.00;97727.69;2620805;28;20068;-85
2022/12/22 05:30:48;;;;;;;50.50;20.20;;;;;;;2.38;100.00;97731.03;2620069;28;20185;-85
2022/12/22 05:32:03;;;;;;;40.17;17.45;;;;;;;2.31;100.00;97728.50;2621928;28;20048;-84
2022/12/22 05:33:19;;;;;;;42.22;19.00;;;;;;;2.38;100.00;97723.28;2621181;28;20550;-85
2022/12/22 05:34:35;;;;;;;42.53;18.30;;;;;;;2.22;100.00;97719.06;2620052;28;20135;-85
2022/12/22 05:35:51;;;;;;;50.40;19.75;;;;;;;2.39;100.00;97719.84;2622085;28;20107;-85
2022/12/22 05:37:07;;;;;;;43.13;18.73;;;;;;;2.49;100.00;97717.16;2620615;28;20041;-85
2022/12/22 05:38:23;;;;;;;42.67;19.27;;;;;;;2.61;100.00;97727.41;2621030;28;20050;-85
2022/12/22 05:39:38;;;;;;;47.78;20.83;;;;;;;2.19;100.00;97713.94;2622518;28;20044;-85
2022/12/22 05:40:54;;;;;;;44.53;20.13;;;;;;;2.42;100.00;97716.34;2620104;28;20172;-84
2022/12/22 05:42:10;;;;;;;44.30;18.95;;;;;;;2.67;100.00;97718.75;2621796;28;20568;-85
2022/12/22 05:43:26;;;;;;;39.67;18.35;;;;;;;2.57;100.00;97720.56;2619581;28;20139;-85
2022/12/22 05:44:41;;;;;;;45.22;19.15;;;;;;;2.58;100.00;97717.13;2620815;28;20048;-87
2022/12/22 05:46:00;;;;;;;50.25;21.52;;;;;;;2.73;100.00;97710.97;2621682;28;20429;-88
2022/12/22 05:47:16;;;;;;;44.67;19.15;;;;;;;2.83;100.00;97714.34;2622842;28;20490;-85
2022/12/22 05:48:32;;;;;;;49.88;21.00;;;;;;;2.88;100.00;97720.31;2620940;28;20131;-84
2022/12/22 05:49:48;;;;;;;41.47;19.27;;;;;;;2.87;100.00;97715.16;2619945;28;20052;-87
2022/12/22 05:51:03;;;;;;;41.47;20.30;;;;;;;2.80;100.00;97719.53;2622818;28;20463;-87
2022/12/22 05:52:19;;;;;;;33.83;16.50;;;;;;;2.82;100.00;97710.88;2621522;28;20137;-85
2022/12/22 05:53:36;;;;;;;38.25;16.80;;;;;;;2.86;100.00;97718.59;2619595;28;20135;-87
2022/12/22 05:54:51;;;;;;;36.58;17.45;;;;;;;2.94;100.00;97707.34;2622384;28;20052;-83
2022/12/22 05:56:07;;;;;;;35.92;15.77;;;;;;;2.80;100.00;97709.19;2620953;28;20098;-83
2022/12/22 05:57:23;;;;;;;44.80;17.33;;;;;;;2.75;100.00;97711.81;2620969;28;20145;-84
2022/12/22 05:58:39;;;;;;;41.30;19.30;;;;;;;2.79;100.00;97710.91;2619051;28;20063;-84
2022/12/22 05:59:54;;;;;;;34.33;16.77;;;;;;;2.85;100.00;97709.13;2619808;28;20052;-82
2022/12/22 06:01:10;;;;;;;37.88;18.20;;;;;;;2.86;100.00;97700.50;2623120;28;20161;-83
2022/12/22 06:02:25;;;;;;;39.15;19.23;;;;;;;2.92;100.00;97709.06;2621616;28;20044;-84
2022/12/22 06:03:41;;;;;;;52.90;20.73;;;;;;;2.86;100.00;97705.69;2621898;28;20044;-84
2022/12/22 06:04:57;;;;;;;39.33;18.48;;;;;;;2.89;100.00;97698.75;2622095;28;20518;-83
2022/12/22 06:06:12;;;;;;;73.72;23.70;;;;;;;2.87;100.00;97697.06;2623979;28;20136;-83
2022/12/22 06:07:28;;;;;;;80.85;32.85;;;;;;;2.91;100.00;97701.34;2622963;28;20589;-84
2022/12/22 06:08:44;;;;;;;58.30;26.63;;;;;;;2.95;100.00;97697.84;2624232;28;20052;-85
2022/12/22 06:09:59;;;;;;;66.97;33.72;;;;;;;2.88;100.00;97698.78;2622641;28;20048;-84
2022/12/22 06:11:17;;;;;;;49.70;23.02;;;;;;;2.95;100.00;97692.66;2623178;28;20099;-84
2022/12/22 06:12:32;;;;;;;59.65;23.92;;;;;;;2.89;100.00;97685.81;2622855;28;20047;-83
2022/12/22 06:13:48;;;;;;;49.38;21.38;;;;;;;3.00;100.00;97690.88;2622313;28;20407;-85
2022/12/22 06:15:05;;;;;;;49.22;22.33;;;;;;;3.00;100.00;97687.47;2623286;28;20391;-85
2022/12/22 06:16:22;;;;;;;168.10;24.98;;;;;;;3.04;100.00;97692.59;2622117;28;20052;-84
2022/12/22 06:17:37;;;;;;;44.33;19.58;;;;;;;2.99;100.00;97686.59;2622816;28;20051;-83
2022/12/22 06:18:53;;;;;;;42.53;19.67;;;;;;;2.97;100.00;97689.22;2622048;28;20045;-83
2022/12/22 06:20:10;;;;;;;43.45;20.15;;;;;;;2.86;100.00;97682.41;2623108;28;20059;-83
2022/12/22 06:21:25;;;;;;;46.60;19.77;;;;;;;2.48;100.00;97676.69;2623082;28;20513;-82
2022/12/22 06:22:41;;;;;;;60.20;19.38;;;;;;;2.75;100.00;97682.50;2621954;28;20068;-83
2022/12/22 06:23:58;;;;;;;42.78;19.33;;;;;;;2.77;100.00;97681.63;2622927;28;20055;-84
2022/12/22 06:25:13;;;;;;;48.17;20.98;;;;;;;2.44;100.00;97670.69;2621613;28;20479;-82
2022/12/22 06:26:29;;;;;;;44.75;19.58;;;;;;;2.68;100.00;97676.53;2622663;28;20432;-83
2022/12/22 06:27:46;;;;;;;40.75;18.42;;;;;;;2.61;100.00;97670.56;2622046;28;20048;-83
2022/12/22 06:29:01;;;;;;;42.05;18.60;;;;;;;2.51;100.00;97669.78;2622445;28;20127;-83
2022/12/22 06:30:17;;;;;;;49.20;22.17;;;;;;;2.64;100.00;97669.69;2622160;28;20040;-84
2022/12/22 06:31:33;;;;;;;40.67;18.70;;;;;;;2.45;100.00;97671.56;2623175;28;20436;-87
2022/12/22 06:32:49;;;;;;;40.45;17.85;;;;;;;2.60;100.00;97674.03;2621963;28;20044;-83
2022/12/22 06:34:05;;;;;;;49.88;22.08;;;;;;;2.45;100.00;97679.31;2622727;28;20089;-83
2022/12/22 06:35:20;;;;;;;48.10;20.15;;;;;;;2.58;100.00;97675.75;2621932;28;20453;-82
2022/12/22 06:36:37;;;;;;;56.58;22.95;;;;;;;2.72;100.00;97677.38;2623253;28;20394;-85
2022/12/22 06:37:53;;;;;;;64.05;23.17;;;;;;;2.74;100.00;97683.38;2621552;28;20091;-83
2022/12/22 06:39:09;;;;;;;68.60;24.17;;;;;;;2.80;100.00;97686.78;2622486;28;20079;-83
2022/12/22 06:40:24;;;;;;;60.03;22.70;;;;;;;2.86;100.00;97682.41;2621333;28;20056;-82
2022/12/22 06:43:15;;;;;;;50.75;21.73;;;;;;;2.78;100.00;97683.34;2621853;28;20048;-83
2022/12/22 06:44:30;;;;;;;55.00;22.70;;;;;;;2.84;100.00;97685.03;2622822;28;20052;-85
2022/12/22 06:45:49;;;;;;;56.28;21.60;;;;;;;2.70;100.00;97679.13;2620534;28;20055;-84
2022/12/22 06:47:21;;;;;;;47.58;22.15;;;;;;;2.37;100.00;97681.97;2623190;28;20041;-84
2022/12/22 06:48:44;;;;;;;46.22;21.05;;;;;;;2.66;100.00;97679.16;2625500;28;20056;-83
2022/12/22 06:50:18;;;;;;;52.50;21.25;;;;;;;2.70;100.00;97684.28;2621215;28;20056;-83
2022/12/22 06:51:52;;;;;;;49.92;21.58;;;;;;;2.85;100.00;97684.16;2621072;28;20053;-83
2022/12/22 06:53:26;;;;;;;52.75;20.40;;;;;;;2.78;100.00;97683.34;2623302;28;20048;-83
2022/12/22 06:54:41;;;;;;;57.67;22.23;;;;;;;2.57;100.00;97684.38;2620185;28;20493;-83
2022/12/22 06:55:57;;;;;;;50.33;21.65;;;;;;;2.83;100.00;97678.97;2622382;28;20044;-83
2022/12/22 06:57:13;;;;;;;46.22;19.48;;;;;;;2.90;100.00;97672.03;2623412;28;20391;-83
2022/12/22 06:58:28;;;;;;;41.42;18.00;;;;;;;2.88;100.00;97670.34;2621488;28;20746;-84
2022/12/22 06:59:44;;;;;;;36.08;16.02;;;;;;;2.80;100.00;97673.00;2621051;28;20073;-86
2022/12/22 07:01:00;;;;;;;30.85;14.90;;;;;;;2.95;100.00;97670.28;2622863;28;20056;-84
2022/12/22 07:02:15;;;;;;;31.95;15.82;;;;;;;2.76;100.00;97671.28;2621135;28;20129;-84
2022/12/22 07:03:31;;;;;;;32.45;15.68;;;;;;;2.81;100.00;97661.78;2621312;28;20510;-83
2022/12/22 07:04:46;;;;;;;43.40;21.15;;;;;;;1.95;100.00;97664.13;2622177;28;20490;-84
2022/12/22 07:06:02;;;;;;;45.63;20.02;;;;;;;2.09;100.00;97657.16;2621765;28;20458;-86
2022/12/22 07:07:18;;;;;;;39.75;18.70;;;;;;;2.32;100.00;97661.31;2621074;28;20044;-83
2022/12/22 07:08:33;;;;;;;34.63;15.45;;;;;;;2.40;100.00;97664.72;2621525;28;20513;-83
2022/12/22 07:09:49;;;;;;;26.80;14.02;;;;;;;2.36;100.00;97654.41;2624336;28;20684;-83
2022/12/22 07:11:05;;;;;;;27.05;12.80;;;;;;;2.33;100.00;97659.59;2622417;28;20335;-84
2022/12/22 07:12:21;;;;;;;27.25;12.68;;;;;;;2.58;100.00;97657.69;2620757;28;20121;-84
2022/12/22 07:13:37;;;;;;;27.35;12.38;;;;;;;2.63;100.00;97657.63;2620285;28;20562;-83
2022/12/22 07:14:52;;;;;;;27.80;12.90;;;;;;;2.67;100.00;97657.59;2621299;28;20083;-85
2022/12/22 07:16:10;;;;;;;35.08;15.07;;;;;;;2.66;100.00;97661.06;2621847;28;20078;-85
2022/12/22 07:17:25;;;;;;;27.38;12.82;;;;;;;2.73;100.00;97659.28;2622014;28;20392;-87
2022/12/22 07:18:42;;;;;;;29.13;13.60;;;;;;;2.82;100.00;97651.41;2621969;28;20081;-85
2022/12/22 07:19:57;;;;;;;40.40;15.50;;;;;;;2.89;100.00;97648.78;2620796;28;20052;-83
2022/12/22 07:21:14;;;;;;;33.15;15.20;;;;;;;2.78;100.00;97652.31;2621198;28;20049;-83
2022/12/22 07:22:29;;;;;;;28.45;13.07;;;;;;;2.62;100.00;97649.03;2622818;28;20522;-83
2022/12/22 07:23:45;;;;;;;27.27;12.13;;;;;;;2.91;100.00;97647.88;2622202;28;20473;-85
2022/12/22 07:25:00;;;;;;;29.63;13.32;;;;;;;2.97;100.00;97641.78;2624432;28;20415;-83
2022/12/22 07:26:16;;;;;;;27.85;14.07;;;;;;;2.98;100.00;97638.34;2621658;28;20052;-84
2022/12/22 07:27:31;;;;;;;27.70;13.40;;;;;;;3.13;100.00;97636.44;2623427;28;20048;-84
2022/12/22 07:28:47;;;;;;;27.90;12.93;;;;;;;2.87;100.00;97637.63;2622087;28;20049;-85
2022/12/22 07:30:03;;;;;;;25.35;12.85;;;;;;;2.96;100.00;97633.19;2620846;28;20110;-83
2022/12/22 07:31:19;;;;;;;39.17;16.20;;;;;;;2.94;100.00;97629.78;2622960;28;20056;-87
2022/12/22 07:32:34;;;;;;;44.85;18.92;;;;;;;2.18;100.00;97624.41;2621010;28;20048;-83
2022/12/22 07:33:50;;;;;;;47.50;19.77;;;;;;;2.45;100.00;97633.69;2623231;28;20047;-83
2022/12/22 07:35:06;;;;;;;49.08;22.42;;;;;;;2.72;100.00;97636.03;2619718;28;20122;-83
2022/12/22 07:36:22;;;;;;;42.88;19.08;;;;;;;2.19;100.00;97636.44;2621826;28;20131;-83
2022/12/22 07:37:38;;;;;;;39.97;20.08;;;;;;;2.71;100.00;97629.97;2620816;28;20059;-82
2022/12/22 07:38:53;;;;;;;39.88;16.85;;;;;;;2.46;100.00;97626.78;2622462;28;20077;-83
2022/12/22 07:40:09;;;;;;;32.45;15.27;;;;;;;2.72;100.00;97623.09;2622260;28;20049;-83
2022/12/22 07:43:00;;;;;;;29.90;12.88;;;;;;;2.87;100.00;97615.19;2622395;28;20469;-83
2022/12/22 07:44:15;;;;;;;24.73;11.15;;;;;;;3.01;100.00;97616.75;2623678;28;20090;-83
2022/12/22 07:45:32;;;;;;;22.75;11.18;;;;;;;3.21;100.00;97613.94;2620530;28;20529;-85
2022/12/22 07:46:49;;;;;;;24.95;10.73;;;;;;;3.19;100.00;97613.13;2623637;28;20044;-82
2022/12/22 07:50:23;;;;;;;21.13;9.90;;;;;;;3.03;100.00;97608.13;2621943;28;20513;-84
2022/12/22 07:51:14;;;;;;;22.85;10.60;;;;;;;3.81;100.00;97604.53;2622776;28;20056;-84
2022/12/22 07:52:30;;;;;;;22.98;9.68;;;;;;;3.83;100.00;97607.13;2619969;28;20056;-82
2022/12/22 07:53:46;;;;;;;25.52;10.23;;;;;;;3.89;100.00;97605.31;2621669;28;20052;-86
2022/12/22 07:55:01;;;;;;;24.15;9.98;;;;;;;3.98;100.00;97604.31;2621491;28;20051;-83
2022/12/22 07:56:17;;;;;;;26.67;11.05;;;;;;;4.28;100.00;97606.47;2621323;28;20086;-83
2022/12/22 07:57:34;;;;;;;24.98;10.45;;;;;;;4.17;100.00;97611.78;2621091;28;20492;-83
2022/12/22 07:58:50;;;;;;;27.63;10.63;;;;;;;4.15;100.00;97605.78;2621916;28;20666;-84
2022/12/22 08:00:06;;;;;;;30.73;11.07;;;;;;;4.09;100.00;97610.19;2622398;28;20044;-84
2022/12/22 08:01:23;;;;;;;29.40;10.90;;;;;;;4.33;100.00;97604.63;2621685;28;20150;-86
2022/12/22 08:02:39;;;;;;;25.35;10.80;;;;;;;4.31;100.00;97609.84;2620299;28;20054;-84
2022/12/22 08:03:55;;;;;;;25.88;11.50;;;;;;;4.55;100.00;97596.50;2620122;28;20525;-83
2022/12/22 08:05:11;;;;;;;25.73;11.48;;;;;;;4.75;100.00;97603.91;2622579;28;20048;-83
2022/12/22 08:06:27;;;;;;;27.60;12.13;;;;;;;4.85;100.00;97597.69;2622134;28;20122;-84
2022/12/22 08:07:42;;;;;;;26.98;12.05;;;;;;;4.91;100.00;97602.75;2621689;28;20551;-84
2022/12/22 08:08:58;;;;;;;30.90;11.90;;;;;;;4.88;100.00;97595.03;2621828;28;20052;-84
2022/12/22 08:10:14;;;;;;;29.73;11.63;;;;;;;4.86;100.00;97604.56;2623510;28;20050;-83
2022/12/22 08:11:30;;;;;;;28.20;11.88;;;;;;;4.81;100.00;97596.03;2621588;28;20064;-83
2022/12/22 08:12:46;;;;;;;26.75;11.27;;;;;;;4.93;100.00;97593.22;2621277;28;20048;-86
2022/12/22 08:14:01;;;;;;;28.23;11.82;;;;;;;4.71;100.00;97595.34;2622409;28;20736;-84
2022/12/22 08:15:17;;;;;;;33.90;13.25;;;;;;;4.96;100.00;97592.31;2619529;28;20088;-83
2022/12/22 08:16:33;;;;;;;30.90;13.05;;;;;;;5.06;100.00;97580.84;2621609;28;20127;-83
2022/12/22 08:17:48;;;;;;;31.55;13.50;;;;;;;5.23;100.00;97587.44;2621241;28;20053;-84
2022/12/22 08:19:04;;;;;;;34.13;12.35;;;;;;;5.30;100.00;97582.97;2623016;28;20124;-84
2022/12/22 08:20:19;;;;;;;32.72;12.65;;;;;;;5.38;100.00;97578.50;2622716;28;20048;-84
2022/12/22 08:21:35;;;;;;;35.97;12.82;;;;;;;5.41;100.00;97572.38;2623340;28;20060;-84
2022/12/22 08:22:50;;;;;;;32.05;13.52;;;;;;;5.32;100.00;97578.63;2621227;28;20176;-84
2022/12/22 08:24:06;;;;;;;33.45;13.93;;;;;;;5.46;100.00;97574.00;2620211;28;20048;-83
2022/12/22 08:25:22;;;;;;;39.58;16.52;;;;;;;5.58;100.00;97566.81;2623608;28;20504;-84
2022/12/22 08:26:42;;;;;;;38.20;14.57;;;;;;;5.50;100.00;97573.03;2622572;28;20122;-86
2022/12/22 08:27:58;;;;;;;34.22;14.85;;;;;;;5.62;100.00;97571.91;2620567;28;20093;-83
2022/12/22 08:29:22;;;;;;;36.70;13.95;;;;;;;5.37;100.00;97566.41;2621816;28;20189;-85
2022/12/22 08:30:38;;;;;;;29.60;12.25;;;;;;;5.44;100.00;97567.97;2621933;28;20537;-82
2022/12/22 08:31:54;;;;;;;34.42;15.18;;;;;;;4.92;100.00;97568.16;2621942;28;20055;-83
2022/12/22 08:33:10;;;;;;;34.90;14.18;;;;;;;5.20;100.00;97572.81;2622416;28;20052;-83
2022/12/22 08:34:25;;;;;;;76.72;32.83;;;;;;;5.35;100.00;97575.97;2621244;28;20058;-82
2022/12/22 08:35:41;;;;;;;82.05;33.30;;;;;;;5.51;100.00;97579.94;2621180;28;20052;-82
2022/12/22 08:37:01;;;;;;;60.40;26.83;;;;;;;5.48;100.00;97572.22;2622165;28;20130;-83
2022/12/22 08:38:16;;;;;;;50.75;21.88;;;;;;;5.45;100.00;97580.09;2620358;28;20048;-84
2022/12/22 08:39:37;;;;;;;40.63;16.40;;;;;;;5.26;100.00;97576.13;2619730;28;20578;-83
2022/12/22 08:40:53;;;;;;;35.75;15.38;;;;;;;5.39;100.00;97575.00;2622969;28;20044;-84
2022/12/22 08:42:12;;;;;;;31.85;13.60;;;;;;;5.39;100.00;97568.97;2623024;28;20109;-83
2022/12/22 08:43:31;;;;;;;29.20;13.20;;;;;;;5.70;100.00;97565.69;2619683;28;20127;-86
2022/12/22 08:44:51;;;;;;;35.80;17.95;;;;;;;5.55;100.00;97562.56;2620440;28;20052;-83
2022/12/22 08:46:07;;;;;;;25.00;12.52;;;;;;;5.47;100.00;97561.84;2622555;28;20036;-83
2022/12/22 08:47:23;;;;;;;38.88;17.77;;;;;;;5.79;100.00;97558.53;2622378;28;20052;-83
2022/12/22 08:48:39;;;;;;;33.95;16.77;;;;;;;6.01;100.00;97552.00;2622950;28;20048;-83
2022/12/22 08:49:54;;;;;;;36.22;16.48;;;;;;;6.20;100.00;97557.63;2621299;28;20174;-82
2022/12/22 08:51:10;;;;;;;34.75;14.52;;;;;;;5.79;100.00;97555.09;2621066;28;20048;-83
2022/12/22 08:52:25;;;;;;;31.17;13.57;;;;;;;5.88;100.00;97554.88;2621336;28;20057;-82
2022/12/22 08:53:41;;;;;;;31.85;16.55;;;;;;;6.03;100.00;97560.63;2622267;28;20048;-87
2022/12/22 08:54:56;;;;;;;52.67;31.52;;;;;;;6.19;100.00;97568.94;2620092;28;20048;-84
2022/12/22 08:56:12;;;;;;;37.00;22.70;;;;;;;6.43;100.00;97558.81;2620257;28;20056;-86
2022/12/22 08:57:28;;;;;;;41.33;22.55;;;;;;;6.60;100.00;97563.56;2619727;28;20076;-83
2022/12/22 08:58:44;;;;;;;53.00;33.00;;;;;;;6.27;100.00;97561.78;2621487;28;20532;-83
2022/12/22 08:59:59;;;;;;;34.30;19.00;;;;;;;5.98;100.00;97550.31;2620162;28;20542;-83
2022/12/22 09:01:18;;;;;;;24.45;13.20;;;;;;;6.10;100.00;97554.41;2620511;28;20139;-84
2022/12/22 09:02:34;;;;;;;28.20;14.90;;;;;;;6.38;100.00;97560.66;2622850;28;20066;-83
2022/12/22 09:03:51;;;;;;;42.13;22.30;;;;;;;6.08;100.00;97551.84;2621283;28;20049;-88
2022/12/22 09:05:07;;;;;;;33.20;18.65;;;;;;;5.97;100.00;97560.75;2620056;28;20127;-84
2022/12/22 09:06:24;;;;;;;31.20;16.08;;;;;;;5.96;100.00;97553.84;2620313;28;20048;-83
2022/12/22 09:07:40;;;;;;;26.25;12.13;;;;;;;6.27;100.00;97563.53;2621944;28;20047;-83
2022/12/22 09:08:57;;;;;;;16.50;8.32;;;;;;;6.36;100.00;97558.94;2621301;28;20559;-83
2022/12/22 09:10:13;;;;;;;26.80;12.57;;;;;;;6.50;100.00;97557.75;2619648;28;20063;-84
2022/12/22 09:11:29;;;;;;;27.77;14.00;;;;;;;6.68;100.00;97558.16;2619131;28;20531;-83
2022/12/22 09:12:46;;;;;;;18.10;8.88;;;;;;;6.52;100.00;97560.31;2621054;28;20058;-83
2022/12/22 09:14:03;;;;;;;17.70;8.02;;;;;;;6.63;100.00;97561.75;2622489;28;20475;-83
2022/12/22 09:15:18;;;;;;;21.35;10.95;;;;;;;6.70;100.00;97546.81;2620770;28;20071;-84
2022/12/22 09:16:34;;;;;;;19.42;9.82;;;;;;;6.67;100.00;97546.03;2619953;28;20045;-84
2022/12/22 09:17:50;;;;;;;12.57;6.22;;;;;;;6.59;100.00;97536.72;2620685;28;20564;-83
2022/12/22 09:19:06;;;;;;;10.57;5.75;;;;;;;6.65;100.00;97538.31;2622439;28;20117;-83
2022/12/22 09:20:22;;;;;;;10.65;5.53;;;;;;;6.74;100.00;97552.81;2621447;28;20142;-84
2022/12/22 09:21:37;;;;;;;9.43;5.30;;;;;;;6.74;100.00;97545.84;2619839;28;20048;-82
2022/12/22 09:22:53;;;;;;;11.50;5.90;;;;;;;6.89;100.00;97544.56;2622188;28;20044;-83
2022/12/22 09:24:09;;;;;;;10.23;6.22;;;;;;;6.91;100.00;97545.38;2621157;28;20052;-84
2022/12/22 09:25:25;;;;;;;10.77;5.43;;;;;;;7.02;100.00;97539.03;2621253;28;20045;-84
2022/12/22 09:26:41;;;;;;;7.32;4.30;;;;;;;6.80;100.00;97539.63;2619473;28;20041;-83
2022/12/22 09:27:57;;;;;;;6.97;4.00;;;;;;;6.99;100.00;97529.56;2620505;28;20045;-82
2022/12/22 09:29:14;;;;;;;8.38;4.40;;;;;;;6.92;100.00;97525.44;2621942;28;20056;-84
2022/12/22 09:30:29;;;;;;;5.75;2.78;;;;;;;6.91;100.00;97532.38;2621476;28;20048;-83